sensor_id;sensor_type;location;lat;lon;timestamp;P1;durP1;ratioP1;P2;durP2;ratioP2
68608;SDS011;55581;46.718;7.690;2023-05-14T00:00:29;2.37;;;0.40;;
68608;SDS011;55581;46.718;7.690;2023-05-14T00:02:54;5.17;;;0.40;;
68608;SDS011;55581;46.718;7.690;2023-05-14T00:05:21;2.80;;;0.43;;
68608;SDS011;55581;46.718;7.690;2023-05-14T00:07:48;2.80;;;0.30;;
68608;SDS011;55581;46.718;7.690;2023-05-14T00:10:14;2.13;;;0.40;;
68608;SDS011;55581;46.718;7.690;2023-05-14T00:12:41;1.77;;;0.40;;
68608;SDS011;55581;46.718;7.690;2023-05-14T00:15:07;2.80;;;0.53;;
68608;SDS011;55581;46.718;7.690;2023-05-14T00:17:35;3.25;;;0.50;;
68608;SDS011;55581;46.718;7.690;2023-05-14T00:20:01;3.78;;;1.30;;
68608;SDS011;55581;46.718;7.690;2023-05-14T00:22:27;2.40;;;0.40;;
68608;SDS011;55581;46.718;7.690;2023-05-14T00:24:53;2.23;;;0.40;;
68608;SDS011;55581;46.718;7.690;2023-05-14T00:27:19;2.30;;;0.50;;
68608;SDS011;55581;46.718;7.690;2023-05-14T00:29:44;3.33;;;0.60;;
68608;SDS011;55581;46.718;7.690;2023-05-14T00:32:10;2.38;;;0.55;;
68608;SDS011;55581;46.718;7.690;2023-05-14T00:34:38;2.67;;;0.40;;
68608;SDS011;55581;46.718;7.690;2023-05-14T00:37:04;3.35;;;0.50;;
68608;SDS011;55581;46.718;7.690;2023-05-14T00:39:29;10.37;;;1.13;;
68608;SDS011;55581;46.718;7.690;2023-05-14T00:41:56;3.17;;;0.50;;
68608;SDS011;55581;46.718;7.690;2023-05-14T00:44:23;2.58;;;0.35;;
68608;SDS011;55581;46.718;7.690;2023-05-14T00:46:51;2.30;;;0.40;;
68608;SDS011;55581;46.718;7.690;2023-05-14T00:49:17;2.22;;;0.40;;
68608;SDS011;55581;46.718;7.690;2023-05-14T00:51:43;3.13;;;0.70;;
68608;SDS011;55581;46.718;7.690;2023-05-14T00:54:12;3.05;;;0.45;;
68608;SDS011;55581;46.718;7.690;2023-05-14T00:56:38;4.55;;;0.55;;
68608;SDS011;55581;46.718;7.690;2023-05-14T00:59:03;3.73;;;0.47;;
68608;SDS011;55581;46.718;7.690;2023-05-14T01:01:32;3.10;;;0.70;;
68608;SDS011;55581;46.718;7.690;2023-05-14T01:03:57;1.80;;;0.40;;
68608;SDS011;55581;46.718;7.690;2023-05-14T01:06:29;2.33;;;0.50;;
68608;SDS011;55581;46.718;7.690;2023-05-14T01:09:31;2.83;;;0.32;;
68608;SDS011;55581;46.718;7.690;2023-05-14T01:12:32;3.45;;;0.50;;
68608;SDS011;55581;46.718;7.690;2023-05-14T01:17:53;4.18;;;0.40;;
68608;SDS011;55581;46.718;7.690;2023-05-14T01:20:22;3.83;;;0.52;;
68608;SDS011;55581;46.718;7.690;2023-05-14T01:22:48;3.05;;;0.30;;
68608;SDS011;55581;46.718;7.690;2023-05-14T01:25:13;2.10;;;0.30;;
68608;SDS011;55581;46.718;7.690;2023-05-14T01:30:20;2.67;;;0.30;;
68608;SDS011;55581;46.718;7.690;2023-05-14T01:32:50;1.70;;;0.32;;
68608;SDS011;55581;46.718;7.690;2023-05-14T01:35:21;2.95;;;0.57;;
68608;SDS011;55581;46.718;7.690;2023-05-14T01:37:49;3.73;;;1.03;;
68608;SDS011;55581;46.718;7.690;2023-05-14T01:40:19;2.17;;;0.40;;
68608;SDS011;55581;46.718;7.690;2023-05-14T01:42:47;2.35;;;0.30;;
68608;SDS011;55581;46.718;7.690;2023-05-14T01:45:15;1.25;;;0.20;;
68608;SDS011;55581;46.718;7.690;2023-05-14T01:47:43;2.05;;;0.17;;
68608;SDS011;55581;46.718;7.690;2023-05-14T01:50:09;1.63;;;0.20;;
68608;SDS011;55581;46.718;7.690;2023-05-14T01:52:35;1.63;;;0.67;;
68608;SDS011;55581;46.718;7.690;2023-05-14T01:55:05;1.70;;;0.25;;
68608;SDS011;55581;46.718;7.690;2023-05-14T01:57:31;4.28;;;0.30;;
68608;SDS011;55581;46.718;7.690;2023-05-14T01:59:57;3.05;;;0.20;;
68608;SDS011;55581;46.718;7.690;2023-05-14T02:02:25;0.80;;;0.10;;
68608;SDS011;55581;46.718;7.690;2023-05-14T02:04:51;2.35;;;0.20;;
68608;SDS011;55581;46.718;7.690;2023-05-14T02:07:16;2.20;;;0.20;;
68608;SDS011;55581;46.718;7.690;2023-05-14T02:09:41;1.50;;;0.20;;
68608;SDS011;55581;46.718;7.690;2023-05-14T02:12:07;1.17;;;0.20;;
68608;SDS011;55581;46.718;7.690;2023-05-14T02:14:33;1.13;;;0.20;;
68608;SDS011;55581;46.718;7.690;2023-05-14T02:17:02;2.70;;;0.10;;
68608;SDS011;55581;46.718;7.690;2023-05-14T02:19:27;1.15;;;0.17;;
68608;SDS011;55581;46.718;7.690;2023-05-14T02:21:54;5.63;;;0.65;;
68608;SDS011;55581;46.718;7.690;2023-05-14T02:24:19;1.50;;;0.20;;
68608;SDS011;55581;46.718;7.690;2023-05-14T02:26:44;4.60;;;0.50;;
68608;SDS011;55581;46.718;7.690;2023-05-14T02:29:10;1.53;;;0.20;;
68608;SDS011;55581;46.718;7.690;2023-05-14T02:31:35;1.57;;;0.20;;
68608;SDS011;55581;46.718;7.690;2023-05-14T02:34:01;1.77;;;0.40;;
68608;SDS011;55581;46.718;7.690;2023-05-14T02:36:28;4.68;;;0.32;;
68608;SDS011;55581;46.718;7.690;2023-05-14T02:38:53;1.07;;;0.10;;
68608;SDS011;55581;46.718;7.690;2023-05-14T02:41:19;2.13;;;0.20;;
68608;SDS011;55581;46.718;7.690;2023-05-14T02:43:45;1.05;;;0.20;;
68608;SDS011;55581;46.718;7.690;2023-05-14T02:46:10;1.67;;;0.20;;
68608;SDS011;55581;46.718;7.690;2023-05-14T02:48:36;1.08;;;0.10;;
68608;SDS011;55581;46.718;7.690;2023-05-14T02:51:04;1.40;;;0.10;;
68608;SDS011;55581;46.718;7.690;2023-05-14T02:53:30;1.42;;;0.20;;
68608;SDS011;55581;46.718;7.690;2023-05-14T02:55:55;4.87;;;0.30;;
68608;SDS011;55581;46.718;7.690;2023-05-14T02:58:21;2.37;;;0.20;;
68608;SDS011;55581;46.718;7.690;2023-05-14T03:00:46;2.50;;;0.20;;
68608;SDS011;55581;46.718;7.690;2023-05-14T03:03:11;2.17;;;0.30;;
68608;SDS011;55581;46.718;7.690;2023-05-14T03:05:37;1.27;;;0.20;;
68608;SDS011;55581;46.718;7.690;2023-05-14T03:08:02;2.47;;;0.30;;
68608;SDS011;55581;46.718;7.690;2023-05-14T03:10:30;3.63;;;0.20;;
68608;SDS011;55581;46.718;7.690;2023-05-14T03:12:56;1.85;;;0.20;;
68608;SDS011;55581;46.718;7.690;2023-05-14T03:15:22;2.83;;;0.37;;
68608;SDS011;55581;46.718;7.690;2023-05-14T03:17:47;1.87;;;0.20;;
68608;SDS011;55581;46.718;7.690;2023-05-14T03:20:15;2.85;;;0.20;;
68608;SDS011;55581;46.718;7.690;2023-05-14T03:22:41;1.57;;;0.20;;
68608;SDS011;55581;46.718;7.690;2023-05-14T03:25:06;1.03;;;0.10;;
68608;SDS011;55581;46.718;7.690;2023-05-14T03:27:32;0.93;;;0.10;;
68608;SDS011;55581;46.718;7.690;2023-05-14T03:29:58;1.38;;;0.28;;
68608;SDS011;55581;46.718;7.690;2023-05-14T03:32:24;1.80;;;0.20;;
68608;SDS011;55581;46.718;7.690;2023-05-14T03:34:49;1.40;;;0.30;;
68608;SDS011;55581;46.718;7.690;2023-05-14T03:37:14;1.42;;;0.20;;
68608;SDS011;55581;46.718;7.690;2023-05-14T03:39:40;1.67;;;0.40;;
68608;SDS011;55581;46.718;7.690;2023-05-14T03:42:05;2.07;;;0.60;;
68608;SDS011;55581;46.718;7.690;2023-05-14T03:44:32;2.50;;;0.30;;
68608;SDS011;55581;46.718;7.690;2023-05-14T03:46:58;1.20;;;0.20;;
68608;SDS011;55581;46.718;7.690;2023-05-14T03:49:23;1.80;;;0.30;;
68608;SDS011;55581;46.718;7.690;2023-05-14T03:51:49;1.98;;;0.25;;
68608;SDS011;55581;46.718;7.690;2023-05-14T03:54:15;3.75;;;0.32;;
68608;SDS011;55581;46.718;7.690;2023-05-14T03:56:41;1.57;;;0.30;;
68608;SDS011;55581;46.718;7.690;2023-05-14T03:59:06;1.17;;;0.20;;
68608;SDS011;55581;46.718;7.690;2023-05-14T04:01:32;1.70;;;0.40;;
68608;SDS011;55581;46.718;7.690;2023-05-14T04:03:57;1.73;;;0.47;;
68608;SDS011;55581;46.718;7.690;2023-05-14T04:06:23;2.17;;;0.40;;
68608;SDS011;55581;46.718;7.690;2023-05-14T04:08:48;1.30;;;0.20;;
68608;SDS011;55581;46.718;7.690;2023-05-14T04:11:14;1.45;;;0.20;;
68608;SDS011;55581;46.718;7.690;2023-05-14T04:13:44;1.43;;;0.20;;
68608;SDS011;55581;46.718;7.690;2023-05-14T04:16:10;2.03;;;0.30;;
68608;SDS011;55581;46.718;7.690;2023-05-14T04:18:40;2.65;;;0.40;;
68608;SDS011;55581;46.718;7.690;2023-05-14T04:21:08;4.95;;;0.30;;
68608;SDS011;55581;46.718;7.690;2023-05-14T04:23:36;3.50;;;0.77;;
68608;SDS011;55581;46.718;7.690;2023-05-14T04:26:01;2.65;;;0.40;;
68608;SDS011;55581;46.718;7.690;2023-05-14T04:28:27;2.15;;;0.40;;
68608;SDS011;55581;46.718;7.690;2023-05-14T04:30:53;1.87;;;0.20;;
68608;SDS011;55581;46.718;7.690;2023-05-14T04:33:18;3.53;;;0.23;;
68608;SDS011;55581;46.718;7.690;2023-05-14T04:35:46;3.95;;;0.28;;
68608;SDS011;55581;46.718;7.690;2023-05-14T04:38:11;3.20;;;0.40;;
68608;SDS011;55581;46.718;7.690;2023-05-14T04:40:38;2.55;;;0.20;;
68608;SDS011;55581;46.718;7.690;2023-05-14T04:43:04;1.65;;;0.30;;
68608;SDS011;55581;46.718;7.690;2023-05-14T04:45:29;1.23;;;0.20;;
68608;SDS011;55581;46.718;7.690;2023-05-14T04:47:56;2.88;;;0.50;;
68608;SDS011;55581;46.718;7.690;2023-05-14T04:50:21;2.43;;;0.40;;
68608;SDS011;55581;46.718;7.690;2023-05-14T04:52:47;7.07;;;1.20;;
68608;SDS011;55581;46.718;7.690;2023-05-14T04:55:15;3.60;;;0.90;;
68608;SDS011;55581;46.718;7.690;2023-05-14T04:57:40;2.47;;;0.53;;
68608;SDS011;55581;46.718;7.690;2023-05-14T05:00:06;2.17;;;0.30;;
68608;SDS011;55581;46.718;7.690;2023-05-14T05:02:33;3.03;;;0.40;;
68608;SDS011;55581;46.718;7.690;2023-05-14T05:04:59;5.47;;;0.50;;
68608;SDS011;55581;46.718;7.690;2023-05-14T05:07:24;2.77;;;0.63;;
68608;SDS011;55581;46.718;7.690;2023-05-14T05:09:50;2.77;;;0.40;;
68608;SDS011;55581;46.718;7.690;2023-05-14T05:12:15;2.13;;;0.40;;
68608;SDS011;55581;46.718;7.690;2023-05-14T05:14:40;2.37;;;0.40;;
68608;SDS011;55581;46.718;7.690;2023-05-14T05:17:06;4.47;;;0.57;;
68608;SDS011;55581;46.718;7.690;2023-05-14T05:19:34;3.33;;;0.40;;
68608;SDS011;55581;46.718;7.690;2023-05-14T05:22:00;2.10;;;0.40;;
68608;SDS011;55581;46.718;7.690;2023-05-14T05:24:27;2.70;;;0.45;;
68608;SDS011;55581;46.718;7.690;2023-05-14T05:26:55;2.20;;;0.45;;
68608;SDS011;55581;46.718;7.690;2023-05-14T05:29:21;2.80;;;0.40;;
68608;SDS011;55581;46.718;7.690;2023-05-14T05:31:47;1.80;;;0.43;;
68608;SDS011;55581;46.718;7.690;2023-05-14T05:34:13;1.93;;;0.30;;
68608;SDS011;55581;46.718;7.690;2023-05-14T05:36:38;2.38;;;0.80;;
68608;SDS011;55581;46.718;7.690;2023-05-14T05:39:03;2.33;;;0.40;;
68608;SDS011;55581;46.718;7.690;2023-05-14T05:41:29;1.70;;;0.20;;
68608;SDS011;55581;46.718;7.690;2023-05-14T05:43:54;1.57;;;0.30;;
68608;SDS011;55581;46.718;7.690;2023-05-14T05:46:21;2.43;;;0.23;;
68608;SDS011;55581;46.718;7.690;2023-05-14T05:48:46;1.58;;;0.20;;
68608;SDS011;55581;46.718;7.690;2023-05-14T05:51:11;1.67;;;0.30;;
68608;SDS011;55581;46.718;7.690;2023-05-14T05:53:37;2.15;;;0.20;;
68608;SDS011;55581;46.718;7.690;2023-05-14T05:56:02;2.20;;;0.10;;
68608;SDS011;55581;46.718;7.690;2023-05-14T05:58:28;1.83;;;0.40;;
68608;SDS011;55581;46.718;7.690;2023-05-14T06:00:53;1.93;;;0.40;;
68608;SDS011;55581;46.718;7.690;2023-05-14T06:03:19;1.73;;;0.30;;
68608;SDS011;55581;46.718;7.690;2023-05-14T06:05:46;2.67;;;0.50;;
68608;SDS011;55581;46.718;7.690;2023-05-14T06:08:11;3.13;;;0.50;;
68608;SDS011;55581;46.718;7.690;2023-05-14T06:10:36;3.83;;;0.30;;
68608;SDS011;55581;46.718;7.690;2023-05-14T06:13:02;2.00;;;0.40;;
68608;SDS011;55581;46.718;7.690;2023-05-14T06:15:27;2.15;;;0.47;;
68608;SDS011;55581;46.718;7.690;2023-05-14T06:17:53;1.50;;;0.20;;
68608;SDS011;55581;46.718;7.690;2023-05-14T06:20:18;2.30;;;0.60;;
68608;SDS011;55581;46.718;7.690;2023-05-14T06:22:45;2.20;;;0.70;;
68608;SDS011;55581;46.718;7.690;2023-05-14T06:25:13;2.17;;;0.57;;
68608;SDS011;55581;46.718;7.690;2023-05-14T06:27:38;3.08;;;0.90;;
68608;SDS011;55581;46.718;7.690;2023-05-14T06:30:04;3.20;;;0.90;;
68608;SDS011;55581;46.718;7.690;2023-05-14T06:32:31;4.20;;;1.17;;
68608;SDS011;55581;46.718;7.690;2023-05-14T06:34:58;28.35;;;14.90;;
68608;SDS011;55581;46.718;7.690;2023-05-14T06:37:27;5.63;;;2.85;;
68608;SDS011;55581;46.718;7.690;2023-05-14T06:39:52;2.40;;;0.70;;
68608;SDS011;55581;46.718;7.690;2023-05-14T06:42:18;2.58;;;0.75;;
68608;SDS011;55581;46.718;7.690;2023-05-14T06:44:46;1.63;;;0.47;;
68608;SDS011;55581;46.718;7.690;2023-05-14T06:47:18;1.83;;;0.32;;
68608;SDS011;55581;46.718;7.690;2023-05-14T06:49:44;2.97;;;1.20;;
68608;SDS011;55581;46.718;7.690;2023-05-14T06:52:10;2.55;;;0.80;;
68608;SDS011;55581;46.718;7.690;2023-05-14T06:54:36;2.22;;;0.30;;
68608;SDS011;55581;46.718;7.690;2023-05-14T06:57:01;2.60;;;0.80;;
68608;SDS011;55581;46.718;7.690;2023-05-14T06:59:27;2.92;;;0.60;;
68608;SDS011;55581;46.718;7.690;2023-05-14T07:01:53;3.23;;;0.80;;
68608;SDS011;55581;46.718;7.690;2023-05-14T07:04:19;3.70;;;1.00;;
68608;SDS011;55581;46.718;7.690;2023-05-14T07:06:45;1.63;;;0.37;;
68608;SDS011;55581;46.718;7.690;2023-05-14T07:09:13;3.88;;;1.30;;
68608;SDS011;55581;46.718;7.690;2023-05-14T07:11:38;6.13;;;0.87;;
68608;SDS011;55581;46.718;7.690;2023-05-14T07:14:04;2.13;;;0.30;;
68608;SDS011;55581;46.718;7.690;2023-05-14T07:16:33;4.50;;;0.93;;
68608;SDS011;55581;46.718;7.690;2023-05-14T07:18:58;2.10;;;0.40;;
68608;SDS011;55581;46.718;7.690;2023-05-14T07:21:24;1.52;;;0.28;;
68608;SDS011;55581;46.718;7.690;2023-05-14T07:23:50;1.87;;;0.40;;
68608;SDS011;55581;46.718;7.690;2023-05-14T07:26:17;1.83;;;0.40;;
68608;SDS011;55581;46.718;7.690;2023-05-14T07:28:42;1.63;;;0.40;;
68608;SDS011;55581;46.718;7.690;2023-05-14T07:31:08;1.58;;;0.30;;
68608;SDS011;55581;46.718;7.690;2023-05-14T07:33:38;1.53;;;0.23;;
68608;SDS011;55581;46.718;7.690;2023-05-14T07:36:04;1.80;;;0.50;;
68608;SDS011;55581;46.718;7.690;2023-05-14T07:38:32;2.97;;;0.40;;
68608;SDS011;55581;46.718;7.690;2023-05-14T07:40:59;1.63;;;0.20;;
68608;SDS011;55581;46.718;7.690;2023-05-14T07:43:24;1.20;;;0.20;;
68608;SDS011;55581;46.718;7.690;2023-05-14T07:45:50;0.90;;;0.20;;
68608;SDS011;55581;46.718;7.690;2023-05-14T07:48:15;1.27;;;0.30;;
68608;SDS011;55581;46.718;7.690;2023-05-14T07:50:41;1.47;;;0.20;;
68608;SDS011;55581;46.718;7.690;2023-05-14T07:53:06;1.02;;;0.28;;
68608;SDS011;55581;46.718;7.690;2023-05-14T07:55:32;2.93;;;0.40;;
68608;SDS011;55581;46.718;7.690;2023-05-14T07:57:57;3.07;;;0.30;;
68608;SDS011;55581;46.718;7.690;2023-05-14T08:00:23;2.03;;;0.30;;
68608;SDS011;55581;46.718;7.690;2023-05-14T08:02:48;2.13;;;0.40;;
68608;SDS011;55581;46.718;7.690;2023-05-14T08:05:14;2.03;;;0.40;;
68608;SDS011;55581;46.718;7.690;2023-05-14T08:07:39;1.10;;;0.22;;
68608;SDS011;55581;46.718;7.690;2023-05-14T08:10:06;1.40;;;0.20;;
68608;SDS011;55581;46.718;7.690;2023-05-14T08:12:32;1.52;;;0.30;;
68608;SDS011;55581;46.718;7.690;2023-05-14T08:14:57;1.42;;;0.30;;
68608;SDS011;55581;46.718;7.690;2023-05-14T08:17:23;2.37;;;0.67;;
68608;SDS011;55581;46.718;7.690;2023-05-14T08:19:48;1.23;;;0.33;;
68608;SDS011;55581;46.718;7.690;2023-05-14T08:22:13;1.13;;;0.30;;
68608;SDS011;55581;46.718;7.690;2023-05-14T08:24:39;1.48;;;0.30;;
68608;SDS011;55581;46.718;7.690;2023-05-14T08:27:06;1.40;;;0.20;;
68608;SDS011;55581;46.718;7.690;2023-05-14T08:29:32;1.10;;;0.22;;
68608;SDS011;55581;46.718;7.690;2023-05-14T08:31:57;1.40;;;0.30;;
68608;SDS011;55581;46.718;7.690;2023-05-14T08:34:22;1.10;;;0.20;;
68608;SDS011;55581;46.718;7.690;2023-05-14T08:36:48;2.30;;;0.30;;
68608;SDS011;55581;46.718;7.690;2023-05-14T08:39:15;1.13;;;0.30;;
68608;SDS011;55581;46.718;7.690;2023-05-14T08:41:40;2.40;;;0.27;;
68608;SDS011;55581;46.718;7.690;2023-05-14T08:44:06;1.70;;;0.40;;
68608;SDS011;55581;46.718;7.690;2023-05-14T08:46:36;4.23;;;1.30;;
68608;SDS011;55581;46.718;7.690;2023-05-14T08:51:40;2.13;;;0.40;;
68608;SDS011;55581;46.718;7.690;2023-05-14T08:54:06;1.77;;;0.30;;
68608;SDS011;55581;46.718;7.690;2023-05-14T08:56:32;1.53;;;0.33;;
68608;SDS011;55581;46.718;7.690;2023-05-14T08:58:57;2.03;;;0.30;;
68608;SDS011;55581;46.718;7.690;2023-05-14T09:01:23;1.20;;;0.23;;
68608;SDS011;55581;46.718;7.690;2023-05-14T09:03:49;3.35;;;0.43;;
68608;SDS011;55581;46.718;7.690;2023-05-14T09:06:16;2.25;;;0.20;;
68608;SDS011;55581;46.718;7.690;2023-05-14T09:08:43;2.90;;;0.38;;
68608;SDS011;55581;46.718;7.690;2023-05-14T09:11:08;1.43;;;0.30;;
68608;SDS011;55581;46.718;7.690;2023-05-14T09:13:36;7.27;;;2.73;;
68608;SDS011;55581;46.718;7.690;2023-05-14T09:16:04;4.32;;;1.30;;
68608;SDS011;55581;46.718;7.690;2023-05-14T09:18:29;1.80;;;0.40;;
68608;SDS011;55581;46.718;7.690;2023-05-14T09:20:55;2.20;;;0.30;;
68608;SDS011;55581;46.718;7.690;2023-05-14T09:23:21;1.50;;;0.40;;
68608;SDS011;55581;46.718;7.690;2023-05-14T09:25:50;1.52;;;0.40;;
68608;SDS011;55581;46.718;7.690;2023-05-14T09:28:16;1.67;;;0.40;;
68608;SDS011;55581;46.718;7.690;2023-05-14T09:30:45;1.70;;;0.30;;
68608;SDS011;55581;46.718;7.690;2023-05-14T09:33:24;1.63;;;0.47;;
68608;SDS011;55581;46.718;7.690;2023-05-14T09:35:50;2.92;;;0.60;;
68608;SDS011;55581;46.718;7.690;2023-05-14T09:38:15;1.90;;;0.60;;
68608;SDS011;55581;46.718;7.690;2023-05-14T09:40:41;1.97;;;0.63;;
68608;SDS011;55581;46.718;7.690;2023-05-14T09:43:09;1.55;;;0.30;;
68608;SDS011;55581;46.718;7.690;2023-05-14T09:45:34;1.63;;;0.40;;
68608;SDS011;55581;46.718;7.690;2023-05-14T09:48:00;4.40;;;0.40;;
68608;SDS011;55581;46.718;7.690;2023-05-14T09:50:26;3.97;;;0.40;;
68608;SDS011;55581;46.718;7.690;2023-05-14T09:52:53;2.37;;;0.30;;
68608;SDS011;55581;46.718;7.690;2023-05-14T09:55:19;1.40;;;0.30;;
68608;SDS011;55581;46.718;7.690;2023-05-14T09:57:45;3.10;;;1.30;;
68608;SDS011;55581;46.718;7.690;2023-05-14T10:00:13;2.38;;;0.45;;
68608;SDS011;55581;46.718;7.690;2023-05-14T10:02:40;1.02;;;0.28;;
68608;SDS011;55581;46.718;7.690;2023-05-14T10:05:09;1.57;;;0.20;;
68608;SDS011;55581;46.718;7.690;2023-05-14T10:07:41;1.73;;;0.30;;
68608;SDS011;55581;46.718;7.690;2023-05-14T10:10:09;1.48;;;0.30;;
68608;SDS011;55581;46.718;7.690;2023-05-14T10:12:40;2.15;;;0.60;;
68608;SDS011;55581;46.718;7.690;2023-05-14T10:15:11;1.92;;;0.40;;
68608;SDS011;55581;46.718;7.690;2023-05-14T10:17:47;1.60;;;0.20;;
68608;SDS011;55581;46.718;7.690;2023-05-14T10:20:16;1.38;;;0.40;;
68608;SDS011;55581;46.718;7.690;2023-05-14T10:22:42;2.20;;;0.60;;
68608;SDS011;55581;46.718;7.690;2023-05-14T10:25:10;2.75;;;0.57;;
68608;SDS011;55581;46.718;7.690;2023-05-14T10:27:36;1.40;;;0.20;;
68608;SDS011;55581;46.718;7.690;2023-05-14T10:30:04;2.70;;;0.82;;
68608;SDS011;55581;46.718;7.690;2023-05-14T10:32:35;3.75;;;1.10;;
68608;SDS011;55581;46.718;7.690;2023-05-14T10:35:06;4.35;;;1.10;;
68608;SDS011;55581;46.718;7.690;2023-05-14T10:37:40;4.03;;;1.13;;
68608;SDS011;55581;46.718;7.690;2023-05-14T10:40:05;5.37;;;1.30;;
68608;SDS011;55581;46.718;7.690;2023-05-14T10:42:34;3.95;;;1.25;;
68608;SDS011;55581;46.718;7.690;2023-05-14T10:45:05;4.55;;;2.08;;
68608;SDS011;55581;46.718;7.690;2023-05-14T10:47:36;3.33;;;1.20;;
68608;SDS011;55581;46.718;7.690;2023-05-14T10:50:04;3.08;;;1.10;;
68608;SDS011;55581;46.718;7.690;2023-05-14T10:52:34;4.70;;;1.10;;
68608;SDS011;55581;46.718;7.690;2023-05-14T10:55:02;3.90;;;1.38;;
68608;SDS011;55581;46.718;7.690;2023-05-14T10:57:31;3.60;;;1.60;;
68608;SDS011;55581;46.718;7.690;2023-05-14T10:59:59;4.70;;;1.87;;
68608;SDS011;55581;46.718;7.690;2023-05-14T11:02:26;6.70;;;2.25;;
68608;SDS011;55581;46.718;7.690;2023-05-14T11:07:23;4.15;;;1.92;;
68608;SDS011;55581;46.718;7.690;2023-05-14T11:09:51;3.93;;;1.10;;
68608;SDS011;55581;46.718;7.690;2023-05-14T11:12:17;2.50;;;0.80;;
68608;SDS011;55581;46.718;7.690;2023-05-14T11:14:43;2.65;;;0.90;;
68608;SDS011;55581;46.718;7.690;2023-05-14T11:17:10;3.10;;;0.63;;
68608;SDS011;55581;46.718;7.690;2023-05-14T11:19:36;2.92;;;0.90;;
68608;SDS011;55581;46.718;7.690;2023-05-14T11:22:02;3.10;;;0.83;;
68608;SDS011;55581;46.718;7.690;2023-05-14T11:24:28;2.92;;;0.90;;
68608;SDS011;55581;46.718;7.690;2023-05-14T11:26:53;3.33;;;1.23;;
68608;SDS011;55581;46.718;7.690;2023-05-14T11:29:20;3.60;;;2.00;;
68608;SDS011;55581;46.718;7.690;2023-05-14T11:31:45;3.80;;;1.57;;
68608;SDS011;55581;46.718;7.690;2023-05-14T11:34:14;4.30;;;1.90;;
68608;SDS011;55581;46.718;7.690;2023-05-14T11:36:39;4.70;;;2.50;;
68608;SDS011;55581;46.718;7.690;2023-05-14T11:39:06;4.85;;;2.40;;
68608;SDS011;55581;46.718;7.690;2023-05-14T11:41:31;6.77;;;3.60;;
68608;SDS011;55581;46.718;7.690;2023-05-14T11:43:57;6.27;;;3.43;;
68608;SDS011;55581;46.718;7.690;2023-05-14T11:46:25;4.85;;;2.85;;
68608;SDS011;55581;46.718;7.690;2023-05-14T11:48:52;6.57;;;3.17;;
68608;SDS011;55581;46.718;7.690;2023-05-14T11:51:18;5.22;;;2.60;;
68608;SDS011;55581;46.718;7.690;2023-05-14T11:53:48;6.18;;;3.17;;
68608;SDS011;55581;46.718;7.690;2023-05-14T11:56:17;6.90;;;3.38;;
68608;SDS011;55581;46.718;7.690;2023-05-14T11:58:46;11.23;;;3.77;;
68608;SDS011;55581;46.718;7.690;2023-05-14T12:01:14;9.15;;;4.05;;
68608;SDS011;55581;46.718;7.690;2023-05-14T12:03:41;6.70;;;3.75;;
68608;SDS011;55581;46.718;7.690;2023-05-14T12:06:09;7.35;;;3.67;;
68608;SDS011;55581;46.718;7.690;2023-05-14T12:08:34;6.80;;;3.60;;
68608;SDS011;55581;46.718;7.690;2023-05-14T12:11:04;6.80;;;3.97;;
68608;SDS011;55581;46.718;7.690;2023-05-14T12:13:30;7.78;;;4.18;;
68608;SDS011;55581;46.718;7.690;2023-05-14T12:15:59;7.30;;;4.10;;
68608;SDS011;55581;46.718;7.690;2023-05-14T12:18:28;7.53;;;4.40;;
68608;SDS011;55581;46.718;7.690;2023-05-14T12:20:57;7.93;;;4.40;;
68608;SDS011;55581;46.718;7.690;2023-05-14T12:23:27;8.00;;;4.50;;
68608;SDS011;55581;46.718;7.690;2023-05-14T12:26:03;7.97;;;4.70;;
68608;SDS011;55581;46.718;7.690;2023-05-14T12:28:30;7.37;;;4.40;;
68608;SDS011;55581;46.718;7.690;2023-05-14T12:30:56;7.53;;;4.13;;
68608;SDS011;55581;46.718;7.690;2023-05-14T12:33:24;8.32;;;5.07;;
68608;SDS011;55581;46.718;7.690;2023-05-14T12:35:52;8.63;;;5.25;;
68608;SDS011;55581;46.718;7.690;2023-05-14T12:38:18;8.37;;;4.67;;
68608;SDS011;55581;46.718;7.690;2023-05-14T12:40:44;7.65;;;4.63;;
68608;SDS011;55581;46.718;7.690;2023-05-14T12:43:09;7.87;;;4.23;;
68608;SDS011;55581;46.718;7.690;2023-05-14T12:45:35;9.25;;;5.30;;
68608;SDS011;55581;46.718;7.690;2023-05-14T12:48:03;6.25;;;3.55;;
68608;SDS011;55581;46.718;7.690;2023-05-14T12:50:29;6.93;;;3.20;;
68608;SDS011;55581;46.718;7.690;2023-05-14T12:52:55;7.28;;;4.22;;
68608;SDS011;55581;46.718;7.690;2023-05-14T12:55:21;6.63;;;3.47;;
68608;SDS011;55581;46.718;7.690;2023-05-14T12:57:48;6.05;;;3.40;;
68608;SDS011;55581;46.718;7.690;2023-05-14T13:00:14;6.82;;;3.78;;
68608;SDS011;55581;46.718;7.690;2023-05-14T13:02:39;6.43;;;3.50;;
68608;SDS011;55581;46.718;7.690;2023-05-14T13:05:05;6.80;;;3.33;;
68608;SDS011;55581;46.718;7.690;2023-05-14T13:07:34;6.20;;;2.97;;
68608;SDS011;55581;46.718;7.690;2023-05-14T13:10:00;6.55;;;3.40;;
68608;SDS011;55581;46.718;7.690;2023-05-14T13:12:25;6.00;;;2.80;;
68608;SDS011;55581;46.718;7.690;2023-05-14T13:14:51;5.22;;;2.53;;
68608;SDS011;55581;46.718;7.690;2023-05-14T13:17:16;5.77;;;2.87;;
68608;SDS011;55581;46.718;7.690;2023-05-14T13:19:42;6.40;;;2.43;;
68608;SDS011;55581;46.718;7.690;2023-05-14T13:22:07;5.88;;;3.05;;
68608;SDS011;55581;46.718;7.690;2023-05-14T13:24:33;5.20;;;2.70;;
68608;SDS011;55581;46.718;7.690;2023-05-14T13:27:02;4.70;;;2.20;;
68608;SDS011;55581;46.718;7.690;2023-05-14T13:29:28;4.03;;;1.90;;
68608;SDS011;55581;46.718;7.690;2023-05-14T13:31:55;6.43;;;2.60;;
68608;SDS011;55581;46.718;7.690;2023-05-14T13:34:21;5.73;;;2.50;;
68608;SDS011;55581;46.718;7.690;2023-05-14T13:36:47;4.88;;;2.00;;
68608;SDS011;55581;46.718;7.690;2023-05-14T13:39:13;4.82;;;2.22;;
68608;SDS011;55581;46.718;7.690;2023-05-14T13:41:40;5.47;;;2.70;;
68608;SDS011;55581;46.718;7.690;2023-05-14T13:44:05;5.57;;;3.20;;
68608;SDS011;55581;46.718;7.690;2023-05-14T13:46:33;6.40;;;4.20;;
68608;SDS011;55581;46.718;7.690;2023-05-14T13:48:58;7.15;;;4.25;;
68608;SDS011;55581;46.718;7.690;2023-05-14T13:51:24;6.28;;;3.30;;
68608;SDS011;55581;46.718;7.690;2023-05-14T13:53:49;10.67;;;6.07;;
68608;SDS011;55581;46.718;7.690;2023-05-14T13:56:15;8.73;;;4.40;;
68608;SDS011;55581;46.718;7.690;2023-05-14T13:58:40;10.27;;;6.30;;
68608;SDS011;55581;46.718;7.690;2023-05-14T14:01:06;8.03;;;4.10;;
68608;SDS011;55581;46.718;7.690;2023-05-14T14:03:34;6.70;;;3.13;;
68608;SDS011;55581;46.718;7.690;2023-05-14T14:06:00;7.83;;;3.43;;
68608;SDS011;55581;46.718;7.690;2023-05-14T14:08:25;9.73;;;3.90;;
68608;SDS011;55581;46.718;7.690;2023-05-14T14:10:51;5.73;;;2.80;;
68608;SDS011;55581;46.718;7.690;2023-05-14T14:13:19;8.23;;;3.50;;
68608;SDS011;55581;46.718;7.690;2023-05-14T14:15:46;7.35;;;3.58;;
68608;SDS011;55581;46.718;7.690;2023-05-14T14:18:12;7.70;;;3.55;;
68608;SDS011;55581;46.718;7.690;2023-05-14T14:20:40;8.40;;;3.53;;
68608;SDS011;55581;46.718;7.690;2023-05-14T14:23:05;8.57;;;3.92;;
68608;SDS011;55581;46.718;7.690;2023-05-14T14:25:31;7.38;;;3.47;;
68608;SDS011;55581;46.718;7.690;2023-05-14T14:27:57;7.43;;;3.80;;
68608;SDS011;55581;46.718;7.690;2023-05-14T14:30:22;6.90;;;3.37;;
68608;SDS011;55581;46.718;7.690;2023-05-14T14:32:50;7.20;;;3.33;;
68608;SDS011;55581;46.718;7.690;2023-05-14T14:35:16;8.60;;;4.53;;
68608;SDS011;55581;46.718;7.690;2023-05-14T14:37:43;6.88;;;3.35;;
68608;SDS011;55581;46.718;7.690;2023-05-14T14:40:13;6.28;;;3.20;;
68608;SDS011;55581;46.718;7.690;2023-05-14T14:42:39;10.18;;;3.53;;
68608;SDS011;55581;46.718;7.690;2023-05-14T14:45:04;6.83;;;2.90;;
68608;SDS011;55581;46.718;7.690;2023-05-14T14:47:30;3.25;;;1.25;;
68608;SDS011;55581;46.718;7.690;2023-05-14T14:49:56;2.70;;;1.00;;
68608;SDS011;55581;46.718;7.690;2023-05-14T14:52:25;3.65;;;1.50;;
68608;SDS011;55581;46.718;7.690;2023-05-14T14:54:52;3.45;;;1.27;;